Time;durP1;ratioP1;P1;durP2;ratioP2;P2;SDS_P1;SDS_P2;PMS_P1;PMS_P2;Temp;Humidity;BMP_temperature;BMP_pressure;BME280_temperature;BME280_humidity;BME280_pressure;Samples;Min_cycle;Max_cycle;Signal;HPM_P1;HPM_P2
2023/08/16 00:00:56;;;;;;;6.43;5.40;;;;;;;;;;5012090;28;20046;-59
2023/08/16 00:03:23;;;;;;;6.50;5.72;;;;;;;;;;5011871;28;20046;-55
2023/08/16 00:05:50;;;;;;;5.93;5.00;;;;;;;;;;5011681;28;20058;-59
2023/08/16 00:08:16;;;;;;;7.25;4.70;;;;;;;;;;5011982;28;20042;-56
2023/08/16 00:10:44;;;;;;;5.60;4.80;;;;;;;;;;5011927;28;20077;-55
2023/08/16 00:13:11;;;;;;;7.47;5.53;;;;;;;;;;5011678;28;20054;-57
2023/08/16 00:15:37;;;;;;;6.50;5.30;;;;;;;;;;5011810;28;20046;-56
2023/08/16 00:18:04;;;;;;;6.65;4.85;;;;;;;;;;5007844;28;20495;-58
2023/08/16 00:20:31;;;;;;;7.10;5.10;;;;;;;;;;5011612;28;20057;-58
2023/08/16 00:22:58;;;;;;;7.25;5.25;;;;;;;;;;5011709;28;20160;-52
2023/08/16 00:25:24;;;;;;;7.18;5.55;;;;;;;;;;5011419;28;20426;-58
2023/08/16 00:27:52;;;;;;;5.60;5.00;;;;;;;;;;5011698;28;20092;-58
2023/08/16 00:30:19;;;;;;;7.05;5.80;;;;;;;;;;5011533;28;20048;-54
2023/08/16 00:32:45;;;;;;;6.60;5.38;;;;;;;;;;5011442;28;20046;-58
2023/08/16 00:35:12;;;;;;;6.65;5.35;;;;;;;;;;5011347;28;20073;-58
2023/08/16 00:37:39;;;;;;;8.20;6.22;;;;;;;;;;5011186;28;20136;-59
2023/08/16 00:40:08;;;;;;;6.77;5.10;;;;;;;;;;4973982;28;1093508;-58
2023/08/16 00:42:35;;;;;;;7.10;5.97;;;;;;;;;;5012282;28;20705;-56
2023/08/16 00:45:03;;;;;;;6.57;5.38;;;;;;;;;;5011843;28;20049;-58
2023/08/16 00:47:30;;;;;;;8.00;5.88;;;;;;;;;;5012254;28;20440;-58
2023/08/16 00:49:56;;;;;;;7.30;5.90;;;;;;;;;;5012532;28;20050;-57
2023/08/16 00:52:23;;;;;;;7.45;5.78;;;;;;;;;;5012195;28;20141;-58
2023/08/16 00:54:50;;;;;;;6.72;5.78;;;;;;;;;;5011169;28;20050;-56
2023/08/16 00:57:17;;;;;;;7.40;5.60;;;;;;;;;;5012061;28;20050;-59
2023/08/16 00:59:45;;;;;;;6.47;5.57;;;;;;;;;;5011892;28;20470;-58
2023/08/16 01:02:14;;;;;;;8.32;5.72;;;;;;;;;;5011982;28;20050;-59
2023/08/16 01:04:41;;;;;;;6.65;5.82;;;;;;;;;;5011972;28;20072;-55
2023/08/16 01:07:08;;;;;;;7.75;5.80;;;;;;;;;;5011817;28;20081;-52
2023/08/16 01:09:35;;;;;;;6.90;5.97;;;;;;;;;;5011717;28;20454;-57
2023/08/16 01:12:09;;;;;;;7.75;6.13;;;;;;;;;;5011764;28;20499;-58
2023/08/16 01:14:46;;;;;;;8.23;5.75;;;;;;;;;;5011866;28;20483;-57
2023/08/16 01:17:16;;;;;;;7.63;5.90;;;;;;;;;;5011661;28;20045;-58
2023/08/16 01:19:45;;;;;;;8.35;6.25;;;;;;;;;;5011784;28;20150;-59
2023/08/16 01:22:21;;;;;;;8.13;5.72;;;;;;;;;;5011569;28;20131;-57
2023/08/16 01:25:06;;;;;;;7.30;6.25;;;;;;;;;;5011422;28;20229;-57
2023/08/16 01:27:34;;;;;;;6.53;5.70;;;;;;;;;;5011651;28;20483;-56
2023/08/16 01:30:02;;;;;;;7.10;5.70;;;;;;;;;;5011606;28;20053;-56
2023/08/16 01:32:29;;;;;;;6.95;5.18;;;;;;;;;;5011535;28;20096;-55
2023/08/16 01:34:56;;;;;;;7.45;6.20;;;;;;;;;;5011303;28;20050;-58
2023/08/16 01:37:23;;;;;;;6.90;5.60;;;;;;;;;;5012162;28;20394;-57
2023/08/16 01:39:51;;;;;;;9.50;5.93;;;;;;;;;;5011607;28;20050;-58
2023/08/16 01:42:18;;;;;;;6.20;5.10;;;;;;;;;;5011526;28;20124;-56
2023/08/16 01:44:48;;;;;;;7.57;5.65;;;;;;;;;;5011228;28;20092;-57
2023/08/16 01:47:16;;;;;;;7.28;6.22;;;;;;;;;;5011466;28;20050;-56
2023/08/16 01:49:43;;;;;;;6.80;5.60;;;;;;;;;;5011213;28;20141;-55
2023/08/16 01:52:10;;;;;;;6.88;5.38;;;;;;;;;;5011273;28;20052;-58
2023/08/16 01:54:36;;;;;;;7.80;5.53;;;;;;;;;;5011227;28;20045;-55
2023/08/16 01:57:03;;;;;;;7.40;5.55;;;;;;;;;;5011404;28;20050;-55
2023/08/16 01:59:30;;;;;;;6.28;4.70;;;;;;;;;;5011258;28;20463;-53
2023/08/16 02:01:57;;;;;;;7.22;5.50;;;;;;;;;;5011271;28;20069;-53
2023/08/16 02:04:24;;;;;;;6.20;5.32;;;;;;;;;;5011631;28;20702;-57
2023/08/16 02:06:51;;;;;;;6.32;5.38;;;;;;;;;;5014829;28;20046;-56
2023/08/16 02:09:19;;;;;;;7.72;5.45;;;;;;;;;;5015008;28;20058;-55
2023/08/16 02:11:45;;;;;;;6.85;5.57;;;;;;;;;;5014864;28;20422;-55
2023/08/16 02:14:12;;;;;;;6.30;5.10;;;;;;;;;;5014566;28;20081;-57
2023/08/16 02:16:38;;;;;;;7.00;5.60;;;;;;;;;;5006847;28;20137;-57
2023/08/16 02:19:06;;;;;;;7.55;5.28;;;;;;;;;;5004015;28;20065;-58
2023/08/16 02:21:33;;;;;;;5.53;4.80;;;;;;;;;;5014615;28;20045;-58
2023/08/16 02:24:00;;;;;;;7.05;5.05;;;;;;;;;;5014776;28;20042;-54
2023/08/16 02:26:26;;;;;;;7.15;5.07;;;;;;;;;;5014523;28;20046;-56
2023/08/16 02:28:53;;;;;;;6.53;5.10;;;;;;;;;;5014597;28;20045;-56
2023/08/16 02:31:19;;;;;;;10.18;6.35;;;;;;;;;;5014444;28;20547;-56
2023/08/16 02:33:46;;;;;;;5.95;4.57;;;;;;;;;;5014560;28;20053;-56
2023/08/16 02:36:14;;;;;;;7.00;4.78;;;;;;;;;;5014376;28;20137;-53
2023/08/16 02:38:40;;;;;;;5.95;4.50;;;;;;;;;;5008642;28;20042;-58
2023/08/16 02:41:07;;;;;;;5.95;4.28;;;;;;;;;;5009243;28;20499;-57
2023/08/16 02:43:34;;;;;;;5.72;4.78;;;;;;;;;;5013972;28;20056;-57
2023/08/16 02:46:00;;;;;;;6.43;4.80;;;;;;;;;;5010244;28;20133;-56
2023/08/16 02:48:27;;;;;;;6.40;5.00;;;;;;;;;;5014444;28;20041;-57
2023/08/16 02:50:53;;;;;;;6.68;4.72;;;;;;;;;;5009250;28;20042;-57
2023/08/16 02:53:21;;;;;;;5.95;5.07;;;;;;;;;;5013053;28;20052;-57
2023/08/16 02:55:48;;;;;;;6.03;4.75;;;;;;;;;;5014158;28;20495;-57
2023/08/16 02:58:14;;;;;;;5.20;4.50;;;;;;;;;;5014111;28;20046;-57
2023/08/16 03:00:41;;;;;;;6.90;4.78;;;;;;;;;;5014085;28;20050;-55
2023/08/16 03:03:07;;;;;;;5.30;4.80;;;;;;;;;;5013590;28;20549;-58
2023/08/16 03:05:34;;;;;;;5.75;4.32;;;;;;;;;;5013041;28;20045;-55
2023/08/16 03:08:01;;;;;;;6.82;4.57;;;;;;;;;;5013823;28;20061;-57
2023/08/16 03:10:29;;;;;;;7.80;4.85;;;;;;;;;;5014046;28;20129;-57
2023/08/16 03:12:56;;;;;;;6.70;5.10;;;;;;;;;;5014051;28;20495;-58
2023/08/16 03:15:23;;;;;;;6.28;4.60;;;;;;;;;;5013800;28;20694;-53
2023/08/16 03:17:49;;;;;;;6.43;5.10;;;;;;;;;;5012892;28;20073;-57
2023/08/16 03:20:16;;;;;;;6.65;5.18;;;;;;;;;;5013951;28;20056;-58
2023/08/16 03:22:43;;;;;;;5.88;4.60;;;;;;;;;;5013110;28;20056;-56
2023/08/16 03:25:09;;;;;;;7.07;5.10;;;;;;;;;;5013468;28;20057;-54
2023/08/16 03:27:37;;;;;;;5.80;4.70;;;;;;;;;;5011105;28;20046;-58
2023/08/16 03:30:05;;;;;;;5.40;4.63;;;;;;;;;;5009675;28;20487;-53
2023/08/16 03:32:31;;;;;;;5.70;4.80;;;;;;;;;;5005451;28;20096;-57
2023/08/16 03:34:58;;;;;;;6.32;5.13;;;;;;;;;;5013459;28;20147;-58
2023/08/16 03:37:25;;;;;;;7.20;4.72;;;;;;;;;;5012425;28;20054;-57
2023/08/16 03:39:52;;;;;;;6.80;4.50;;;;;;;;;;5011677;28;20049;-58
2023/08/16 03:42:18;;;;;;;6.28;4.63;;;;;;;;;;5006688;28;20049;-57
2023/08/16 03:44:46;;;;;;;6.05;4.38;;;;;;;;;;5011705;28;20052;-56
2023/08/16 03:47:13;;;;;;;5.68;4.72;;;;;;;;;;5013167;28;20060;-57
2023/08/16 03:49:40;;;;;;;5.80;4.47;;;;;;;;;;5013145;28;20420;-56
2023/08/16 03:52:07;;;;;;;6.00;4.93;;;;;;;;;;5013033;28;20050;-58
2023/08/16 03:54:33;;;;;;;6.63;4.68;;;;;;;;;;5012620;28;20076;-57
2023/08/16 03:57:00;;;;;;;7.85;5.00;;;;;;;;;;5013226;28;20042;-58
2023/08/16 03:59:26;;;;;;;7.03;5.10;;;;;;;;;;5013067;28;20050;-58
2023/08/16 04:01:54;;;;;;;7.80;4.97;;;;;;;;;;5012942;28;20061;-55
2023/08/16 04:04:21;;;;;;;5.88;5.10;;;;;;;;;;5012833;28;20399;-57
2023/08/16 04:06:48;;;;;;;6.13;4.78;;;;;;;;;;5012706;28;20360;-57
2023/08/16 04:09:14;;;;;;;7.25;5.30;;;;;;;;;;5011266;28;20050;-58
2023/08/16 04:11:41;;;;;;;6.00;5.20;;;;;;;;;;5008656;28;20061;-57
2023/08/16 04:14:08;;;;;;;7.00;5.47;;;;;;;;;;5011903;28;20050;-55
2023/08/16 04:16:34;;;;;;;7.15;5.88;;;;;;;;;;5012661;28;20132;-56
2023/08/16 04:19:02;;;;;;;6.82;5.45;;;;;;;;;;5012384;28;20056;-58
2023/08/16 04:21:29;;;;;;;6.45;5.07;;;;;;;;;;5053025;22;20045;-79
2023/08/16 04:23:55;;;;;;;6.55;5.28;;;;;;;;;;5057493;28;20045;-81
2023/08/16 04:26:25;;;;;;;7.95;6.75;;;;;;;;;;5057369;28;20495;-82
2023/08/16 04:28:52;;;;;;;6.65;5.65;;;;;;;;;;5057345;28;20075;-80
2023/08/16 04:31:18;;;;;;;6.05;4.93;;;;;;;;;;5056913;28;20057;-80
2023/08/16 04:33:45;;;;;;;6.45;5.38;;;;;;;;;;5057187;28;20041;-81
2023/08/16 04:36:13;;;;;;;6.35;5.00;;;;;;;;;;5057116;28;20060;-80
2023/08/16 04:38:39;;;;;;;6.95;5.28;;;;;;;;;;5056560;28;20056;-80
2023/08/16 04:41:06;;;;;;;7.45;5.60;;;;;;;;;;5055027;28;20161;-80
2023/08/16 04:43:32;;;;;;;7.97;5.38;;;;;;;;;;5036183;28;20045;-80
2023/08/16 04:45:59;;;;;;;7.60;5.93;;;;;;;;;;5052768;28;20132;-80
2023/08/16 04:48:26;;;;;;;6.68;5.03;;;;;;;;;;5056747;28;20582;-80
2023/08/16 04:50:53;;;;;;;7.43;5.15;;;;;;;;;;5056351;28;20049;-81
2023/08/16 04:53:21;;;;;;;7.60;5.53;;;;;;;;;;5056945;28;20049;-80
2023/08/16 04:55:47;;;;;;;7.45;5.38;;;;;;;;;;5056732;28;20141;-80
2023/08/16 04:58:14;;;;;;;8.80;5.57;;;;;;;;;;5056567;28;20422;-80
2023/08/16 05:00:41;;;;;;;6.70;5.20;;;;;;;;;;5056055;28;20387;-80
2023/08/16 05:03:07;;;;;;;8.88;5.55;;;;;;;;;;5055933;28;20049;-80
2023/08/16 05:05:34;;;;;;;6.53;5.10;;;;;;;;;;5054918;28;20053;-80
2023/08/16 05:08:00;;;;;;;6.60;5.45;;;;;;;;;;5054825;28;20419;-80
2023/08/16 05:10:28;;;;;;;7.53;5.38;;;;;;;;;;5054252;28;20063;-80
2023/08/16 05:12:55;;;;;;;7.60;5.63;;;;;;;;;;5054607;28;20479;-81
2023/08/16 05:15:21;;;;;;;7.15;5.57;;;;;;;;;;5055547;28;20059;-80
2023/08/16 05:17:48;;;;;;;7.53;5.40;;;;;;;;;;5054844;28;20052;-81
2023/08/16 05:20:14;;;;;;;7.28;5.47;;;;;;;;;;5054015;28;20049;-80
2023/08/16 05:22:41;;;;;;;8.00;5.88;;;;;;;;;;5055195;28;20041;-81
2023/08/16 05:25:08;;;;;;;9.10;5.03;;;;;;;;;;5052213;28;20108;-80
2023/08/16 05:27:36;;;;;;;6.88;5.70;;;;;;;;;;5045713;28;20495;-79
2023/08/16 05:30:03;;;;;;;7.97;5.45;;;;;;;;;;5053318;28;20048;-80
2023/08/16 05:32:30;;;;;;;7.10;5.30;;;;;;;;;;5051985;28;20049;-80
2023/08/16 05:34:56;;;;;;;7.53;5.20;;;;;;;;;;5049240;28;20052;-79
2023/08/16 05:37:23;;;;;;;6.57;5.30;;;;;;;;;;5052174;28;20504;-80
2023/08/16 05:39:50;;;;;;;7.95;4.93;;;;;;;;;;5049869;28;20056;-79
2023/08/16 05:42:16;;;;;;;7.55;4.97;;;;;;;;;;5052574;28;20041;-78
2023/08/16 05:44:44;;;;;;;8.15;5.55;;;;;;;;;;5055523;28;20056;-79
2023/08/16 05:47:11;;;;;;;6.75;5.35;;;;;;;;;;5056742;28;20057;-79
2023/08/16 05:49:37;;;;;;;7.88;5.35;;;;;;;;;;5059768;28;20051;-81
2023/08/16 05:52:04;;;;;;;6.45;5.15;;;;;;;;;;5055338;28;20055;-81
2023/08/16 05:54:31;;;;;;;7.82;5.50;;;;;;;;;;5054616;28;20426;-80
2023/08/16 05:56:57;;;;;;;6.47;5.28;;;;;;;;;;5057314;28;20049;-80
2023/08/16 05:59:24;;;;;;;6.18;5.10;;;;;;;;;;5056567;28;20049;-80
2023/08/16 06:01:51;;;;;;;7.60;5.00;;;;;;;;;;5056130;28;20083;-80
2023/08/16 06:04:18;;;;;;;6.63;5.30;;;;;;;;;;5063332;28;20044;-80
2023/08/16 06:06:44;;;;;;;7.25;5.35;;;;;;;;;;5079795;28;20056;-80
2023/08/16 06:09:11;;;;;;;6.57;4.72;;;;;;;;;;5064881;28;20049;-80
2023/08/16 06:11:38;;;;;;;5.75;4.82;;;;;;;;;;5056306;28;20041;-81
2023/08/16 06:14:04;;;;;;;6.82;5.28;;;;;;;;;;5054664;28;20050;-81
2023/08/16 06:16:31;;;;;;;7.72;4.55;;;;;;;;;;5057993;28;20415;-82
2023/08/16 06:18:59;;;;;;;6.22;4.93;;;;;;;;;;5059606;28;20041;-82
2023/08/16 06:21:25;;;;;;;6.55;5.05;;;;;;;;;;5060008;28;20041;-82
2023/08/16 06:23:53;;;;;;;6.43;4.72;;;;;;;;;;5059671;28;20055;-81
2023/08/16 06:26:19;;;;;;;7.05;4.85;;;;;;;;;;5058359;28;20414;-82
2023/08/16 06:28:47;;;;;;;6.25;4.88;;;;;;;;;;5055487;28;20056;-80
2023/08/16 06:31:14;;;;;;;7.38;4.82;;;;;;;;;;5057651;28;20054;-80
2023/08/16 06:33:40;;;;;;;6.10;4.28;;;;;;;;;;5057992;28;20423;-78
2023/08/16 06:36:09;;;;;;;6.47;5.10;;;;;;;;;;5058721;28;20491;-80
2023/08/16 06:38:36;;;;;;;6.78;4.80;;;;;;;;;;5059217;28;20049;-80
2023/08/16 06:41:03;;;;;;;6.85;4.97;;;;;;;;;;5060070;28;20084;-81
2023/08/16 06:43:29;;;;;;;6.03;4.78;;;;;;;;;;5058998;28;20140;-80
2023/08/16 06:45:57;;;;;;;10.38;5.55;;;;;;;;;;5058290;28;20044;-81
2023/08/16 06:48:24;;;;;;;7.93;5.63;;;;;;;;;;5058417;28;20045;-81
2023/08/16 06:50:50;;;;;;;6.38;5.18;;;;;;;;;;5057529;28;20052;-80
2023/08/16 06:53:19;;;;;;;7.78;5.32;;;;;;;;;;5056663;28;20427;-80
2023/08/16 06:55:46;;;;;;;7.72;4.90;;;;;;;;;;5056964;28;20415;-80
2023/08/16 06:58:12;;;;;;;6.80;5.03;;;;;;;;;;5057596;28;20049;-79
2023/08/16 07:00:45;;;;;;;6.72;4.32;;;;;;;;;;5053068;28;20044;-82
2023/08/16 07:03:13;;;;;;;6.55;4.63;;;;;;;;;;5060698;28;20048;-82
2023/08/16 07:05:40;;;;;;;6.15;4.70;;;;;;;;;;5056513;28;20056;-82
2023/08/16 07:08:07;;;;;;;6.57;4.78;;;;;;;;;;5051645;28;20106;-81
2023/08/16 07:10:35;;;;;;;6.57;4.80;;;;;;;;;;5058315;28;20044;-81
2023/08/16 07:13:02;;;;;;;6.82;4.60;;;;;;;;;;5067782;28;20045;-81
2023/08/16 07:15:29;;;;;;;6.53;4.70;;;;;;;;;;5072351;28;20033;-80
2023/08/16 07:17:55;;;;;;;8.48;4.43;;;;;;;;;;5053133;28;20547;-81
2023/08/16 07:20:24;;;;;;;7.55;4.85;;;;;;;;;;5051015;28;20041;-82
2023/08/16 07:22:51;;;;;;;6.43;4.82;;;;;;;;;;5056384;28;20562;-83
2023/08/16 07:25:17;;;;;;;5.55;4.07;;;;;;;;;;5055458;28;20414;-83
2023/08/16 07:27:45;;;;;;;7.40;4.60;;;;;;;;;;5056702;28;20068;-83
2023/08/16 07:30:13;;;;;;;8.55;4.50;;;;;;;;;;5049908;28;20056;-82
2023/08/16 07:32:40;;;;;;;8.15;4.35;;;;;;;;;;5057771;28;20114;-82
2023/08/16 07:35:07;;;;;;;8.38;4.65;;;;;;;;;;5059363;28;20519;-82
2023/08/16 07:37:34;;;;;;;5.50;3.63;;;;;;;;;;5059361;28;20056;-82
2023/08/16 07:40:01;;;;;;;5.70;3.80;;;;;;;;;;5061100;28;20067;-82
2023/08/16 07:42:28;;;;;;;4.95;3.65;;;;;;;;;;5055845;28;21425;-82
2023/08/16 07:44:57;;;;;;;5.95;3.70;;;;;;;;;;5057988;28;20503;-82
2023/08/16 07:47:23;;;;;;;4.90;3.37;;;;;;;;;;5059195;28;20563;-83
2023/08/16 07:49:50;;;;;;;4.40;3.15;;;;;;;;;;5051448;28;20045;-82
2023/08/16 07:52:17;;;;;;;5.78;3.28;;;;;;;;;;5055573;28;20053;-82
2023/08/16 07:54:44;;;;;;;6.85;3.97;;;;;;;;;;5055058;28;20060;-81
2023/08/16 07:57:10;;;;;;;5.35;3.80;;;;;;;;;;5054390;28;20435;-82
2023/08/16 07:59:37;;;;;;;5.82;3.83;;;;;;;;;;5052920;28;20057;-82
2023/08/16 08:02:06;;;;;;;6.53;3.45;;;;;;;;;;5053615;28;20045;-82
2023/08/16 08:04:32;;;;;;;5.72;3.63;;;;;;;;;;5054046;28;20037;-82
2023/08/16 08:06:59;;;;;;;4.63;3.42;;;;;;;;;;5054131;28;20308;-82
2023/08/16 08:09:26;;;;;;;6.10;3.63;;;;;;;;;;5054626;28;20049;-82
2023/08/16 08:11:53;;;;;;;6.15;3.75;;;;;;;;;;5054393;28;20071;-83
2023/08/16 08:14:19;;;;;;;5.00;3.30;;;;;;;;;;5052030;28;20041;-82
2023/08/16 08:16:46;;;;;;;6.85;3.75;;;;;;;;;;5051628;28;20060;-83
2023/08/16 08:19:14;;;;;;;5.03;3.20;;;;;;;;;;5054583;28;20041;-84
2023/08/16 08:21:40;;;;;;;5.15;3.20;;;;;;;;;;5057285;28;20123;-87
2023/08/16 08:24:07;;;;;;;4.65;3.20;;;;;;;;;;5054578;28;20045;-85
2023/08/16 08:26:35;;;;;;;7.50;3.53;;;;;;;;;;5050468;28;20443;-84
2023/08/16 08:29:02;;;;;;;6.18;3.35;;;;;;;;;;5055015;28;20140;-83
2023/08/16 08:31:29;;;;;;;5.13;3.05;;;;;;;;;;5053569;28;20045;-83
2023/08/16 08:33:56;;;;;;;4.97;3.03;;;;;;;;;;5054642;28;20057;-83
2023/08/16 08:36:24;;;;;;;4.63;3.30;;;;;;;;;;5052510;28;20132;-83
2023/08/16 08:38:50;;;;;;;4.68;3.05;;;;;;;;;;5054239;28;20045;-82
2023/08/16 08:41:18;;;;;;;4.90;3.03;;;;;;;;;;5054127;28;20067;-83
2023/08/16 08:43:46;;;;;;;6.50;3.00;;;;;;;;;;5054432;28;20060;-82
2023/08/16 08:46:13;;;;;;;4.10;2.95;;;;;;;;;;5051523;28;20399;-82
2023/08/16 08:48:40;;;;;;;4.05;3.13;;;;;;;;;;5055033;28;20084;-82
2023/08/16 08:51:06;;;;;;;4.55;3.22;;;;;;;;;;5056359;28;20052;-83
2023/08/16 08:53:34;;;;;;;5.30;3.10;;;;;;;;;;5055639;28;20492;-82
2023/08/16 08:56:07;;;;;;;4.45;3.00;;;;;;;;;;5051606;28;20075;-83
2023/08/16 08:58:35;;;;;;;4.40;3.05;;;;;;;;;;5054492;28;20052;-83
2023/08/16 09:01:02;;;;;;;4.25;2.83;;;;;;;;;;5052010;28;20051;-84
2023/08/16 09:03:31;;;;;;;4.97;3.13;;;;;;;;;;5054332;28;20063;-83
2023/08/16 09:05:57;;;;;;;5.50;3.05;;;;;;;;;;5055041;28;20041;-83
2023/08/16 09:08:24;;;;;;;4.78;2.97;;;;;;;;;;5054328;28;20049;-84
2023/08/16 09:10:52;;;;;;;5.07;3.20;;;;;;;;;;5054650;28;20078;-83
2023/08/16 09:13:20;;;;;;;4.13;2.90;;;;;;;;;;5055045;28;20044;-83
2023/08/16 09:15:46;;;;;;;4.93;3.13;;;;;;;;;;5053482;28;20515;-83
2023/08/16 09:18:14;;;;;;;4.70;3.28;;;;;;;;;;5055521;28;20055;-84
2023/08/16 09:20:42;;;;;;;4.35;3.25;;;;;;;;;;5055536;28;20055;-85
2023/08/16 09:23:12;;;;;;;5.65;2.88;;;;;;;;;;5055846;28;20072;-83
2023/08/16 09:25:39;;;;;;;5.50;3.05;;;;;;;;;;5053887;28;20052;-84
2023/08/16 09:28:10;;;;;;;5.38;2.83;;;;;;;;;;5053960;28;20037;-83
2023/08/16 09:30:37;;;;;;;4.30;3.13;;;;;;;;;;5050341;28;20057;-82
2023/08/16 09:33:05;;;;;;;4.95;3.20;;;;;;;;;;5055097;28;20070;-84
2023/08/16 09:35:33;;;;;;;5.88;3.05;;;;;;;;;;5053308;28;20103;-82
2023/08/16 09:38:01;;;;;;;4.95;3.30;;;;;;;;;;5048473;28;20045;-83
2023/08/16 09:40:27;;;;;;;4.10;3.00;;;;;;;;;;5050402;28;20052;-83
2023/08/16 09:42:58;;;;;;;5.55;3.17;;;;;;;;;;5051701;28;20041;-83
2023/08/16 09:45:32;;;;;;;4.85;3.20;;;;;;;;;;5049294;28;20052;-82
2023/08/16 09:48:00;;;;;;;4.88;3.33;;;;;;;;;;5049538;28;20071;-83
2023/08/16 09:50:27;;;;;;;5.30;3.30;;;;;;;;;;5053627;28;20041;-81
2023/08/16 09:52:54;;;;;;;4.38;2.97;;;;;;;;;;5054451;28;20503;-81
2023/08/16 09:55:27;;;;;;;5.50;3.00;;;;;;;;;;5055472;28;20512;-83
2023/08/16 09:57:55;;;;;;;5.70;2.92;;;;;;;;;;5054230;28;20064;-81
2023/08/16 10:00:23;;;;;;;6.43;3.35;;;;;;;;;;5053668;28;20060;-82
2023/08/16 10:02:51;;;;;;;4.72;3.00;;;;;;;;;;5052642;28;20056;-83
2023/08/16 10:05:18;;;;;;;5.47;3.15;;;;;;;;;;5053564;28;20099;-82
2023/08/16 10:07:47;;;;;;;5.35;2.70;;;;;;;;;;5056115;28;20147;-82
2023/08/16 10:10:14;;;;;;;5.17;2.87;;;;;;;;;;5052675;28;20137;-84
2023/08/16 10:12:41;;;;;;;4.82;2.92;;;;;;;;;;5050198;28;20048;-83
2023/08/16 10:15:08;;;;;;;6.30;2.65;;;;;;;;;;5052109;28;20056;-83
2023/08/16 10:17:38;;;;;;;5.45;3.25;;;;;;;;;;5051654;28;20053;-82
2023/08/16 10:20:12;;;;;;;4.82;3.20;;;;;;;;;;5052365;28;20049;-82
2023/08/16 10:22:42;;;;;;;5.30;2.97;;;;;;;;;;5053771;28;20076;-82
2023/08/16 10:25:12;;;;;;;5.55;3.25;;;;;;;;;;5052316;28;20503;-80
2023/08/16 10:27:42;;;;;;;4.93;3.45;;;;;;;;;;5055832;28;20060;-82
2023/08/16 10:30:12;;;;;;;5.53;3.35;;;;;;;;;;5056122;28;20037;-83
2023/08/16 10:32:41;;;;;;;5.20;3.45;;;;;;;;;;5057973;28;20369;-83
2023/08/16 10:35:10;;;;;;;6.03;3.78;;;;;;;;;;5058500;28;20063;-82
2023/08/16 10:37:37;;;;;;;5.95;3.55;;;;;;;;;;5058445;28;20049;-83
2023/08/16 10:40:15;;;;;;;5.50;4.10;;;;;;;;;;5058549;28;20056;-82
2023/08/16 10:42:49;;;;;;;4.82;3.33;;;;;;;;;;5054976;28;20080;-81
2023/08/16 10:45:22;;;;;;;4.43;3.40;;;;;;;;;;5054619;28;20444;-81
2023/08/16 10:47:49;;;;;;;6.90;3.60;;;;;;;;;;5056585;28;20056;-82
2023/08/16 10:50:17;;;;;;;5.97;3.95;;;;;;;;;;5056025;28;20040;-83
2023/08/16 10:52:44;;;;;;;6.18;3.92;;;;;;;;;;5058082;28;20059;-84
2023/08/16 10:55:11;;;;;;;5.05;3.85;;;;;;;;;;5056874;28;20037;-81
2023/08/16 10:57:39;;;;;;;5.05;3.88;;;;;;;;;;5057603;28;20103;-82
2023/08/16 11:00:08;;;;;;;6.82;4.45;;;;;;;;;;5058352;28;20052;-83
2023/08/16 11:02:36;;;;;;;5.65;4.20;;;;;;;;;;5057690;28;20052;-82
2023/08/16 11:05:03;;;;;;;4.65;3.95;;;;;;;;;;5056965;28;20049;-82
2023/08/16 11:07:31;;;;;;;5.60;3.70;;;;;;;;;;5057166;28;20103;-83
2023/08/16 11:09:59;;;;;;;5.13;3.45;;;;;;;;;;5057785;28;20123;-83
2023/08/16 11:12:29;;;;;;;5.70;3.58;;;;;;;;;;5057637;28;20041;-82
2023/08/16 11:14:56;;;;;;;6.93;4.20;;;;;;;;;;5055972;28;20037;-83
2023/08/16 11:17:26;;;;;;;8.13;3.92;;;;;;;;;;5057741;28;20051;-83
2023/08/16 11:19:53;;;;;;;;;;;;;;;;;;5058081;28;20049;-82
2023/08/16 11:22:21;;;;;;;6.03;3.65;;;;;;;;;;5057747;28;19963;-81
2023/08/16 11:24:50;;;;;;;7.63;4.03;;;;;;;;;;5056011;28;20045;-82
2023/08/16 11:27:20;;;;;;;6.38;3.08;;;;;;;;;;5056338;28;20037;-82
2023/08/16 11:29:49;;;;;;;4.20;2.97;;;;;;;;;;5054737;28;20049;-86
2023/08/16 11:32:15;;;;;;;5.80;2.70;;;;;;;;;;5054628;28;20442;-85
2023/08/16 11:34:42;;;;;;;4.63;2.72;;;;;;;;;;5057705;28;20057;-85
2023/08/16 11:37:09;;;;;;;5.30;3.38;;;;;;;;;;5059329;28;20463;-85
2023/08/16 11:39:37;;;;;;;4.00;2.60;;;;;;;;;;5060051;28;20065;-86
2023/08/16 11:42:06;;;;;;;4.45;3.10;;;;;;;;;;5059116;28;20049;-85
2023/08/16 11:44:39;;;;;;;4.30;3.05;;;;;;;;;;5057989;28;20129;-85
2023/08/16 11:47:13;;;;;;;4.72;3.08;;;;;;;;;;5058225;28;20052;-86
2023/08/16 11:49:40;;;;;;;4.15;3.30;;;;;;;;;;5057257;28;20081;-86
2023/08/16 11:52:08;;;;;;;5.05;3.35;;;;;;;;;;5058133;28;20072;-86
2023/08/16 11:54:34;;;;;;;3.72;2.90;;;;;;;;;;5058046;28;20425;-86
2023/08/16 11:57:01;;;;;;;4.60;2.90;;;;;;;;;;5058029;28;20468;-86
2023/08/16 11:59:32;;;;;;;3.72;2.90;;;;;;;;;;5056728;28;20091;-86
2023/08/16 12:02:06;;;;;;;5.15;3.17;;;;;;;;;;5057804;28;20096;-85
2023/08/16 12:04:33;;;;;;;4.50;2.83;;;;;;;;;;5068426;28;20052;-90
2023/08/16 12:07:00;;;;;;;6.60;3.60;;;;;;;;;;5075654;28;20121;-87
2023/08/16 12:09:30;;;;;;;5.97;3.40;;;;;;;;;;5058289;28;20045;-87
2023/08/16 12:11:57;;;;;;;4.10;3.10;;;;;;;;;;5059680;28;20059;-85
2023/08/16 12:14:24;;;;;;;4.63;3.58;;;;;;;;;;5056162;28;20083;-85
2023/08/16 12:16:52;;;;;;;4.30;3.33;;;;;;;;;;5055937;28;20442;-86
2023/08/16 12:19:21;;;;;;;4.32;3.00;;;;;;;;;;5056569;28;20491;-86
2023/08/16 12:21:48;;;;;;;6.45;4.38;;;;;;;;;;5054432;28;20053;-86
2023/08/16 12:24:14;;;;;;;4.45;3.38;;;;;;;;;;5055942;28;20461;-86
2023/08/16 12:26:41;;;;;;;4.70;3.35;;;;;;;;;;5055726;28;20083;-88
2023/08/16 12:29:08;;;;;;;4.82;3.10;;;;;;;;;;5051396;28;20482;-86
2023/08/16 12:31:35;;;;;;;6.40;3.80;;;;;;;;;;5055365;28;20059;-87
2023/08/16 12:34:03;;;;;;;4.93;3.20;;;;;;;;;;5049933;28;20740;-86
2023/08/16 12:36:29;;;;;;;7.07;3.50;;;;;;;;;;5058809;28;20075;-88
2023/08/16 12:38:56;;;;;;;5.03;3.00;;;;;;;;;;5055873;28;20055;-86
2023/08/16 12:41:22;;;;;;;4.45;3.28;;;;;;;;;;5056901;28;20525;-86
2023/08/16 12:43:49;;;;;;;4.97;3.47;;;;;;;;;;5054946;28;20026;-86
2023/08/16 12:46:16;;;;;;;5.03;3.13;;;;;;;;;;5063148;28;20041;-86
2023/08/16 12:48:42;;;;;;;4.97;3.72;;;;;;;;;;5063397;28;20045;-88
2023/08/16 12:51:10;;;;;;;4.95;3.47;;;;;;;;;;5055775;28;20041;-86
2023/08/16 12:53:37;;;;;;;5.82;3.38;;;;;;;;;;5053576;28;20103;-86
2023/08/16 12:56:04;;;;;;;4.90;3.53;;;;;;;;;;5051550;28;20040;-86
2023/08/16 12:58:31;;;;;;;5.40;3.55;;;;;;;;;;5052290;28;20044;-87
2023/08/16 13:00:57;;;;;;;6.25;3.30;;;;;;;;;;5051522;28;20068;-87
2023/08/16 13:03:24;;;;;;;4.68;3.47;;;;;;;;;;5053744;28;20056;-86
2023/08/16 13:05:51;;;;;;;5.20;3.20;;;;;;;;;;5051031;28;20377;-86
2023/08/16 13:08:21;;;;;;;4.75;3.28;;;;;;;;;;5056614;28;20037;-86
2023/08/16 13:10:47;;;;;;;;;;;;;;;;;;5061444;28;20041;-85
2023/08/16 13:13:14;;;;;;;4.90;3.28;;;;;;;;;;5059038;28;20462;-85
2023/08/16 13:15:41;;;;;;;5.68;3.70;;;;;;;;;;5055109;28;20045;-88
2023/08/16 13:18:08;;;;;;;5.65;3.58;;;;;;;;;;5052207;28;20059;-88
2023/08/16 13:20:34;;;;;;;4.85;3.47;;;;;;;;;;5051789;28;20045;-86
2023/08/16 13:23:01;;;;;;;5.65;4.00;;;;;;;;;;5054548;28;20068;-87
2023/08/16 13:25:29;;;;;;;6.57;3.40;;;;;;;;;;5057215;28;20514;-87
2023/08/16 13:27:56;;;;;;;4.60;3.70;;;;;;;;;;5052918;28;20163;-87
2023/08/16 13:30:25;;;;;;;4.82;3.72;;;;;;;;;;5055491;28;20045;-85
2023/08/16 13:32:57;;;;;;;4.45;3.53;;;;;;;;;;5055495;28;20114;-85
2023/08/16 13:35:23;;;;;;;7.32;3.83;;;;;;;;;;5055416;28;20127;-85
2023/08/16 13:37:54;;;;;;;5.53;3.40;;;;;;;;;;5053664;28;20588;-85
2023/08/16 13:40:24;;;;;;;5.72;3.60;;;;;;;;;;5051557;28;20055;-86
2023/08/16 13:42:51;;;;;;;4.68;3.55;;;;;;;;;;5049335;28;20063;-82
2023/08/16 13:45:18;;;;;;;4.30;3.58;;;;;;;;;;5069469;28;20029;-90
2023/08/16 13:47:45;;;;;;;6.63;3.67;;;;;;;;;;5070292;28;20041;-87
2023/08/16 13:50:12;;;;;;;6.60;3.17;;;;;;;;;;5055470;28;20041;-82
2023/08/16 13:52:38;;;;;;;3.90;3.30;;;;;;;;;;5055981;28;20043;-84
2023/08/16 13:55:06;;;;;;;4.68;3.40;;;;;;;;;;5060292;28;20039;-84
2023/08/16 13:57:33;;;;;;;4.55;3.70;;;;;;;;;;5054667;28;20051;-84
2023/08/16 14:00:01;;;;;;;4.65;3.75;;;;;;;;;;5061266;28;20125;-84
2023/08/16 14:02:27;;;;;;;4.32;3.40;;;;;;;;;;5060994;28;20048;-84
2023/08/16 14:04:54;;;;;;;4.15;3.50;;;;;;;;;;5058351;28;20041;-83
2023/08/16 14:07:20;;;;;;;4.25;3.33;;;;;;;;;;5055878;28;20132;-84
2023/08/16 14:09:47;;;;;;;4.38;3.30;;;;;;;;;;5057013;28;20230;-83
2023/08/16 14:12:13;;;;;;;5.40;3.45;;;;;;;;;;5055328;28;20063;-83
2023/08/16 14:14:40;;;;;;;4.13;3.20;;;;;;;;;;5057280;28;20107;-82
2023/08/16 14:17:08;;;;;;;5.85;3.85;;;;;;;;;;5050184;28;20119;-82
2023/08/16 14:19:34;;;;;;;6.85;3.70;;;;;;;;;;5053678;28;20037;-83
2023/08/16 14:22:01;;;;;;;4.93;3.67;;;;;;;;;;5055366;28;20056;-82
2023/08/16 14:24:28;;;;;;;4.47;3.78;;;;;;;;;;5055327;28;20040;-83
2023/08/16 14:26:55;;;;;;;4.18;3.38;;;;;;;;;;5054972;28;20361;-82
2023/08/16 14:29:21;;;;;;;5.30;3.60;;;;;;;;;;5054554;28;20045;-82
2023/08/16 14:31:48;;;;;;;5.68;4.10;;;;;;;;;;5054206;28;20049;-82
2023/08/16 14:34:16;;;;;;;6.00;4.07;;;;;;;;;;5055745;28;20045;-78
2023/08/16 14:36:43;;;;;;;4.95;3.72;;;;;;;;;;5054688;28;20041;-82
2023/08/16 14:39:10;;;;;;;5.75;3.80;;;;;;;;;;5056653;28;20045;-85
2023/08/16 14:41:37;;;;;;;5.60;3.72;;;;;;;;;;5053107;28;20052;-82
2023/08/16 14:44:04;;;;;;;5.95;3.72;;;;;;;;;;5053040;28;20503;-82